createdAt,value
2023-03-29T00:02:02.406Z,99.90
2023-03-29T00:04:29.345Z,99.90
2023-03-29T00:06:56.162Z,99.80
2023-03-29T00:09:23.473Z,99.90
2023-03-29T00:11:50.324Z,99.90
2023-03-29T00:14:17.030Z,99.90
2023-03-29T00:16:44.945Z,99.80
2023-03-29T00:19:11.762Z,99.80
2023-03-29T00:21:38.468Z,99.40
2023-03-29T00:24:05.454Z,99.80
2023-03-29T00:26:32.111Z,99.90
2023-03-29T00:28:58.727Z,99.80
2023-03-29T00:31:26.127Z,99.90
2023-03-29T00:33:53.021Z,99.90
2023-03-29T00:36:19.845Z,99.90
2023-03-29T00:38:46.720Z,99.90
2023-03-29T00:41:14.047Z,99.90
2023-03-29T00:43:51.882Z,99.90
2023-03-29T00:46:18.686Z,99.90
2023-03-29T00:48:45.448Z,99.90
2023-03-29T00:51:14.698Z,99.90
2023-03-29T00:53:49.341Z,99.90
2023-03-29T00:56:24.216Z,99.90
2023-03-29T00:58:57.226Z,99.90
2023-03-29T01:01:54.884Z,99.90
2023-03-29T01:04:25.219Z,99.90
2023-03-29T01:07:04.338Z,99.90
2023-03-29T01:09:34.195Z,99.90
2023-03-29T01:12:08.240Z,99.90
2023-03-29T01:14:43.889Z,99.90
2023-03-29T01:17:10.914Z,99.90
2023-03-29T01:19:44.206Z,99.90
2023-03-29T01:22:33.952Z,99.90
2023-03-29T01:25:11.180Z,99.90
2023-03-29T01:28:02.477Z,99.90
2023-03-29T01:30:37.290Z,99.90
2023-03-29T01:33:10.605Z,99.90
2023-03-29T01:35:43.814Z,99.90
2023-03-29T01:38:20.638Z,99.90
2023-03-29T01:40:47.376Z,99.90
2023-03-29T01:43:29.781Z,99.90
2023-03-29T01:46:12.436Z,99.90
2023-03-29T01:48:46.841Z,99.90
2023-03-29T01:51:29.338Z,99.90
2023-03-29T01:54:11.334Z,99.90
2023-03-29T01:56:43.234Z,99.90
2023-03-29T01:59:22.798Z,99.90
2023-03-29T02:01:53.684Z,99.90
2023-03-29T02:04:25.674Z,99.90
2023-03-29T02:06:54.640Z,99.90
2023-03-29T02:09:22.221Z,99.90
2023-03-29T02:11:51.387Z,99.90
2023-03-29T02:14:18.040Z,99.90
2023-03-29T02:16:46.329Z,99.90
2023-03-29T02:19:15.220Z,99.90
2023-03-29T02:22:01.879Z,99.90
2023-03-29T02:24:32.233Z,99.90
2023-03-29T02:27:00.123Z,99.90
2023-03-29T02:29:27.454Z,99.90
2023-03-29T02:32:02.094Z,99.90
2023-03-29T02:34:38.917Z,99.90
2023-03-29T02:37:11.626Z,99.90
2023-03-29T02:39:39.321Z,99.90
2023-03-29T02:42:07.446Z,99.90
2023-03-29T02:44:39.180Z,99.90
2023-03-29T02:47:31.978Z,99.90
2023-03-29T02:49:59.949Z,99.90
2023-03-29T02:52:34.111Z,99.90
2023-03-29T02:55:03.111Z,99.90
2023-03-29T02:57:32.174Z,99.90
2023-03-29T02:59:59.899Z,98.90
2023-03-29T03:02:27.757Z,98.80
2023-03-29T03:04:54.585Z,98.80
2023-03-29T03:07:21.387Z,98.90
2023-03-29T03:09:48.884Z,98.60
2023-03-29T03:12:15.556Z,98.40
2023-03-29T03:14:42.165Z,98.20
2023-03-29T03:17:08.799Z,98.30
2023-03-29T03:19:36.238Z,98.50
2023-03-29T03:22:03.157Z,98.20
2023-03-29T03:24:29.786Z,97.90
2023-03-29T03:26:57.509Z,97.70
2023-03-29T03:29:28.422Z,97.40
2023-03-29T03:31:55.626Z,97.10
2023-03-29T03:34:23.022Z,96.60
2023-03-29T03:36:56.849Z,96.60
2023-03-29T03:39:23.469Z,96.30
2023-03-29T03:41:50.181Z,96.20
2023-03-29T03:44:17.198Z,95.50
2023-03-29T03:46:43.802Z,95.20
2023-03-29T03:49:10.469Z,95.00
2023-03-29T03:51:37.218Z,95.20
2023-03-29T03:54:03.928Z,95.00
2023-03-29T03:56:30.544Z,94.90
2023-03-29T03:58:57.362Z,95.00
2023-03-29T04:01:24.442Z,95.10
2023-03-29T04:03:51.255Z,95.30
2023-03-29T04:06:18.157Z,94.90
2023-03-29T04:08:45.529Z,94.70
2023-03-29T04:11:12.349Z,94.60
2023-03-29T04:13:39.072Z,94.50
2023-03-29T04:16:07.138Z,94.10
2023-03-29T04:18:33.995Z,94.30
2023-03-29T04:21:01.088Z,93.80
2023-03-29T04:23:28.550Z,93.60
2023-03-29T04:25:59.340Z,93.50
2023-03-29T04:28:25.944Z,93.30
2023-03-29T04:30:52.763Z,93.10
2023-03-29T04:33:19.529Z,92.90
2023-03-29T04:35:49.322Z,92.80
2023-03-29T04:38:16.726Z,92.50
2023-03-29T04:40:44.201Z,92.60
2023-03-29T04:43:11.061Z,92.60
2023-03-29T04:45:38.086Z,93.00
2023-03-29T04:48:05.514Z,93.40
2023-03-29T04:50:32.293Z,93.60
2023-03-29T04:53:00.347Z,93.70
2023-03-29T04:55:27.097Z,94.00
2023-03-29T04:57:53.972Z,93.80
2023-03-29T05:00:26.951Z,93.50
2023-03-29T05:02:53.978Z,93.50
2023-03-29T05:05:21.105Z,93.20
2023-03-29T05:07:47.950Z,93.20
2023-03-29T05:10:14.959Z,93.10
2023-03-29T05:12:41.768Z,92.90
2023-03-29T05:15:10.473Z,92.80
2023-03-29T05:17:37.308Z,93.10
2023-03-29T05:20:10.272Z,95.80
2023-03-29T05:22:38.233Z,94.00
2023-03-29T05:25:06.282Z,97.50
2023-03-29T05:27:33.507Z,98.00
2023-03-29T05:30:01.666Z,97.80
2023-03-29T05:32:28.532Z,97.60
2023-03-29T05:34:55.242Z,97.60
2023-03-29T05:37:22.010Z,97.30
2023-03-29T05:39:49.626Z,97.40
2023-03-29T05:42:19.149Z,97.10
2023-03-29T05:44:45.823Z,96.30
2023-03-29T05:47:12.619Z,96.50
2023-03-29T05:49:39.511Z,96.90
2023-03-29T05:52:06.694Z,96.60
2023-03-29T05:54:33.742Z,96.70
2023-03-29T05:57:00.414Z,97.10
2023-03-29T05:59:29.631Z,95.10
2023-03-29T06:01:56.743Z,95.20
2023-03-29T06:04:24.401Z,94.60
2023-03-29T06:06:52.995Z,95.20
2023-03-29T06:09:19.944Z,95.10
2023-03-29T06:11:47.610Z,96.20
2023-03-29T06:14:14.703Z,95.50
2023-03-29T06:16:42.809Z,95.30
2023-03-29T06:19:09.738Z,94.80
2023-03-29T06:21:36.499Z,95.00
2023-03-29T06:24:04.054Z,95.10
2023-03-29T06:26:31.278Z,94.80
2023-03-29T06:28:58.271Z,94.80
2023-03-29T06:31:25.204Z,94.10
2023-03-29T06:33:51.921Z,94.50
2023-03-29T06:36:20.197Z,95.00
2023-03-29T06:38:47.144Z,95.50
2023-03-29T06:41:14.854Z,95.20
2023-03-29T06:43:41.868Z,94.80
2023-03-29T06:46:11.822Z,95.30
2023-03-29T06:48:39.819Z,95.90
2023-03-29T06:51:07.612Z,96.00
2023-03-29T06:53:34.979Z,95.90
2023-03-29T06:56:05.457Z,95.00
2023-03-29T06:58:32.437Z,94.10
2023-03-29T07:01:02.579Z,93.50
2023-03-29T07:03:29.952Z,93.00
2023-03-29T07:06:03.562Z,92.10
2023-03-29T07:08:35.213Z,90.90
2023-03-29T07:11:03.264Z,90.90
2023-03-29T07:13:30.457Z,90.80
2023-03-29T07:15:57.419Z,90.10
2023-03-29T07:18:24.212Z,90.10
2023-03-29T07:20:52.191Z,90.10
2023-03-29T07:23:19.334Z,89.90
2023-03-29T07:25:46.973Z,89.70
2023-03-29T07:28:13.729Z,89.70
2023-03-29T07:30:40.549Z,88.70
2023-03-29T07:33:08.378Z,88.30
2023-03-29T07:35:35.273Z,88.30
2023-03-29T07:38:02.007Z,88.00
2023-03-29T07:40:29.357Z,88.10
2023-03-29T07:42:59.224Z,88.30
2023-03-29T07:45:31.544Z,89.20
2023-03-29T07:47:59.519Z,89.10
2023-03-29T07:50:32.537Z,89.10
2023-03-29T07:53:00.855Z,87.20
2023-03-29T07:55:27.706Z,86.10
2023-03-29T07:57:54.676Z,85.20
2023-03-29T08:00:22.381Z,85.80
2023-03-29T08:02:52.282Z,85.20
2023-03-29T08:05:37.817Z,85.40
2023-03-29T08:08:08.147Z,85.60
2023-03-29T08:10:37.134Z,83.70
2023-03-29T08:13:08.351Z,84.40
2023-03-29T08:15:38.422Z,83.80
2023-03-29T08:18:06.589Z,84.50
2023-03-29T08:20:33.425Z,83.20
2023-03-29T08:23:00.158Z,83.30
2023-03-29T08:25:27.103Z,83.00
2023-03-29T08:27:54.079Z,82.90
2023-03-29T08:30:20.953Z,82.10
2023-03-29T08:32:50.946Z,84.30
2023-03-29T08:35:19.347Z,83.60
2023-03-29T08:37:46.020Z,83.80
2023-03-29T08:40:21.590Z,84.90
2023-03-29T08:42:57.171Z,85.70
2023-03-29T08:45:33.805Z,85.00
2023-03-29T08:48:26.255Z,87.60
2023-03-29T08:51:27.355Z,87.50
2023-03-29T08:54:07.365Z,86.60
2023-03-29T08:56:38.419Z,86.10
2023-03-29T08:59:12.553Z,86.30
2023-03-29T09:01:39.750Z,85.30
2023-03-29T09:04:25.374Z,85.30
2023-03-29T09:06:52.787Z,85.20
2023-03-29T09:09:22.590Z,85.40
2023-03-29T09:12:03.990Z,85.40
2023-03-29T09:14:39.766Z,84.50
2023-03-29T09:17:25.612Z,84.80
2023-03-29T09:20:00.056Z,85.40
2023-03-29T09:22:53.534Z,85.70
2023-03-29T09:25:50.981Z,86.10
2023-03-29T09:28:28.006Z,85.50
2023-03-29T09:31:01.476Z,85.00
2023-03-29T09:33:42.601Z,84.50
2023-03-29T09:36:23.226Z,85.20
2023-03-29T09:38:54.191Z,85.40
2023-03-29T09:41:27.034Z,85.00
2023-03-29T09:43:55.958Z,84.50
2023-03-29T09:46:36.349Z,83.70
2023-03-29T09:49:06.661Z,83.60
2023-03-29T09:51:34.417Z,81.90
2023-03-29T09:54:01.262Z,81.70
2023-03-29T09:56:29.596Z,80.90
2023-03-29T09:58:56.391Z,82.10
2023-03-29T10:01:23.134Z,79.80
2023-03-29T10:03:53.596Z,81.10
2023-03-29T10:06:23.761Z,78.10
2023-03-29T10:08:57.649Z,77.70
2023-03-29T10:11:36.923Z,79.90
2023-03-29T10:14:27.793Z,77.90
2023-03-29T10:16:58.154Z,77.00
2023-03-29T10:19:35.680Z,76.10
2023-03-29T10:22:13.627Z,73.80
2023-03-29T10:24:40.316Z,73.10
2023-03-29T10:27:11.709Z,72.60
2023-03-29T10:29:43.170Z,72.30
2023-03-29T10:32:23.233Z,72.30
2023-03-29T10:34:51.349Z,72.00
2023-03-29T10:37:19.717Z,71.60
2023-03-29T10:39:48.018Z,73.30
2023-03-29T10:42:17.305Z,71.70
2023-03-29T10:44:57.181Z,72.20
2023-03-29T10:47:24.729Z,72.60
2023-03-29T10:50:01.525Z,71.20
2023-03-29T10:52:30.008Z,70.80
2023-03-29T10:54:56.942Z,70.60
2023-03-29T10:57:31.827Z,69.90
2023-03-29T11:00:23.333Z,69.60
2023-03-29T11:03:40.743Z,69.00
2023-03-29T11:06:07.850Z,70.80
2023-03-29T11:08:37.183Z,71.00
2023-03-29T11:11:24.370Z,67.90
2023-03-29T11:14:13.937Z,67.80
2023-03-29T11:16:51.015Z,68.00
2023-03-29T11:19:38.511Z,65.80
2023-03-29T11:22:23.161Z,66.30
2023-03-29T11:25:10.127Z,68.20
2023-03-29T11:27:48.434Z,67.40
2023-03-29T11:30:25.954Z,68.20
2023-03-29T11:33:10.793Z,66.30
2023-03-29T11:35:59.851Z,66.00
2023-03-29T11:38:33.060Z,64.80
2023-03-29T11:41:12.805Z,64.60
2023-03-29T11:44:04.109Z,65.40
2023-03-29T11:46:37.926Z,67.70
2023-03-29T11:49:34.369Z,64.00
2023-03-29T11:52:13.813Z,63.10
2023-03-29T11:54:52.562Z,63.70
2023-03-29T11:57:28.568Z,63.80
2023-03-29T12:00:14.879Z,62.30
2023-03-29T12:02:48.291Z,62.50
2023-03-29T12:05:21.350Z,61.60
2023-03-29T12:07:53.628Z,59.90
2023-03-29T12:10:23.795Z,59.60
2023-03-29T12:13:16.795Z,59.10
2023-03-29T12:15:55.356Z,58.20
2023-03-29T12:18:41.783Z,58.30
2023-03-29T12:21:29.960Z,57.90
2023-03-29T12:23:58.303Z,57.00
2023-03-29T12:26:45.147Z,57.20
2023-03-29T12:29:39.648Z,58.10
2023-03-29T12:32:37.873Z,58.50
2023-03-29T12:35:19.187Z,57.20
2023-03-29T12:38:08.523Z,58.40
2023-03-29T12:40:47.308Z,56.90
2023-03-29T12:43:32.641Z,55.80
2023-03-29T12:46:09.375Z,56.10
2023-03-29T12:48:41.505Z,56.90
2023-03-29T12:51:13.898Z,56.70
2023-03-29T12:53:47.198Z,57.50
2023-03-29T12:56:36.237Z,57.70
2023-03-29T12:59:10.779Z,58.00
2023-03-29T13:01:39.297Z,57.40
2023-03-29T13:04:15.253Z,57.30
2023-03-29T13:06:51.181Z,58.00
2023-03-29T13:09:29.729Z,61.10
2023-03-29T13:12:11.786Z,63.60
2023-03-29T13:14:46.382Z,65.20
2023-03-29T13:17:30.908Z,65.40
2023-03-29T13:20:23.771Z,65.40
2023-03-29T13:23:26.452Z,66.10
2023-03-29T13:26:08.099Z,64.60
2023-03-29T13:28:46.816Z,64.60
2023-03-29T13:31:33.622Z,64.50
2023-03-29T13:34:09.510Z,64.90
2023-03-29T13:36:50.912Z,65.40
2023-03-29T13:39:28.525Z,66.40
2023-03-29T13:42:08.843Z,66.50
2023-03-29T13:44:44.857Z,66.60
2023-03-29T13:47:16.286Z,66.10
2023-03-29T13:49:51.618Z,66.30
2023-03-29T13:52:39.336Z,67.00
2023-03-29T13:55:06.220Z,70.80
2023-03-29T13:57:42.479Z,72.10
2023-03-29T14:00:28.486Z,69.30
2023-03-29T14:02:58.499Z,67.50
2023-03-29T14:05:36.504Z,68.00
2023-03-29T14:08:27.038Z,66.00
2023-03-29T14:10:55.181Z,66.50
2023-03-29T14:13:25.834Z,68.20
2023-03-29T14:15:57.215Z,67.60
2023-03-29T14:18:25.889Z,66.30
2023-03-29T14:20:55.454Z,67.90
2023-03-29T14:23:30.252Z,69.80
2023-03-29T14:26:29.931Z,69.90
2023-03-29T14:28:58.015Z,68.20
2023-03-29T14:31:33.942Z,70.30
2023-03-29T14:34:03.333Z,70.80
2023-03-29T14:36:32.459Z,70.70
2023-03-29T14:39:06.317Z,70.10
2023-03-29T14:41:36.715Z,70.00
2023-03-29T14:44:07.567Z,70.00
2023-03-29T14:46:36.457Z,70.00
2023-03-29T14:49:04.984Z,72.50
2023-03-29T14:51:32.091Z,72.90
2023-03-29T14:54:02.845Z,73.60
2023-03-29T14:56:32.616Z,74.70
2023-03-29T14:59:02.487Z,77.30
2023-03-29T15:01:29.372Z,79.20
2023-03-29T15:04:04.391Z,79.40
2023-03-29T15:06:32.651Z,78.70
2023-03-29T15:09:06.601Z,78.50
2023-03-29T15:11:34.552Z,79.10
2023-03-29T15:14:08.551Z,79.50
2023-03-29T15:16:40.636Z,78.60
2023-03-29T15:19:12.737Z,79.80
2023-03-29T15:21:39.686Z,78.80
2023-03-29T15:24:06.710Z,78.90
2023-03-29T15:26:37.657Z,79.70
2023-03-29T15:29:17.274Z,79.90
2023-03-29T15:31:56.127Z,78.80
2023-03-29T15:34:28.016Z,78.10
2023-03-29T15:36:57.283Z,78.90
2023-03-29T15:39:24.514Z,78.70
2023-03-29T15:41:52.783Z,78.80
2023-03-29T15:44:48.855Z,77.60
2023-03-29T15:47:15.612Z,76.60
2023-03-29T15:49:42.344Z,76.10
2023-03-29T15:52:09.002Z,75.40
2023-03-29T15:54:37.129Z,76.00
2023-03-29T15:57:07.288Z,75.90
2023-03-29T15:59:34.842Z,76.00
2023-03-29T16:02:01.803Z,77.70
2023-03-29T16:04:28.654Z,78.20
2023-03-29T16:06:56.000Z,78.40
2023-03-29T16:09:23.524Z,78.10
2023-03-29T16:11:50.696Z,78.10
2023-03-29T16:14:23.083Z,79.10
2023-03-29T16:16:51.373Z,78.80
2023-03-29T16:19:19.534Z,78.90
2023-03-29T16:21:46.378Z,79.10
2023-03-29T16:24:19.957Z,78.90
2023-03-29T16:26:47.336Z,79.00
2023-03-29T16:29:15.995Z,79.20
2023-03-29T16:31:43.561Z,79.70
2023-03-29T16:34:13.028Z,79.30
2023-03-29T16:36:44.218Z,79.40
2023-03-29T16:39:13.117Z,79.30
2023-03-29T16:41:41.451Z,79.70
2023-03-29T16:44:11.197Z,79.30
2023-03-29T16:46:38.109Z,78.50
2023-03-29T16:49:07.854Z,78.40
2023-03-29T16:51:34.758Z,79.00
2023-03-29T16:54:01.458Z,78.80
2023-03-29T16:56:28.730Z,78.70
2023-03-29T16:58:55.758Z,79.20
2023-03-29T17:01:22.816Z,79.30
2023-03-29T17:03:51.913Z,78.60
2023-03-29T17:06:18.960Z,78.60
2023-03-29T17:08:45.884Z,78.80
2023-03-29T17:11:13.071Z,78.50
2023-03-29T17:13:40.356Z,78.70
2023-03-29T17:16:07.712Z,78.30
2023-03-29T17:18:34.659Z,78.30
2023-03-29T17:21:01.713Z,78.00
2023-03-29T17:23:29.432Z,78.60
2023-03-29T17:25:56.218Z,78.00
2023-03-29T17:28:24.272Z,78.60
2023-03-29T17:30:51.786Z,78.60
2023-03-29T17:33:22.497Z,78.40
2023-03-29T17:35:49.826Z,79.40
2023-03-29T17:38:16.736Z,80.00
2023-03-29T17:40:43.493Z,81.70
2023-03-29T17:43:10.344Z,82.10
2023-03-29T17:45:37.619Z,83.80
2023-03-29T17:48:06.545Z,83.50
2023-03-29T17:50:34.217Z,83.90
2023-03-29T17:53:01.037Z,83.40
2023-03-29T17:55:27.924Z,84.20
2023-03-29T17:57:54.843Z,83.80
2023-03-29T18:00:21.960Z,83.40
2023-03-29T18:02:48.940Z,82.60
2023-03-29T18:05:15.930Z,83.50
2023-03-29T18:07:42.631Z,82.50
2023-03-29T18:10:10.070Z,83.90
2023-03-29T18:12:36.875Z,82.50
2023-03-29T18:15:04.214Z,83.20
2023-03-29T18:17:31.533Z,83.00
2023-03-29T18:19:58.241Z,83.50
2023-03-29T18:22:25.307Z,83.80
2023-03-29T18:24:52.356Z,84.60
2023-03-29T18:27:19.732Z,85.40
2023-03-29T18:29:46.633Z,85.30
2023-03-29T18:32:13.702Z,85.00
2023-03-29T18:34:40.473Z,84.80
2023-03-29T18:37:09.301Z,85.90
2023-03-29T18:39:35.963Z,85.80
2023-03-29T18:42:03.367Z,85.80
2023-03-29T18:44:30.088Z,85.10
2023-03-29T18:46:56.856Z,84.80
2023-03-29T18:49:25.694Z,85.30
2023-03-29T18:51:52.513Z,85.40
2023-03-29T18:54:19.348Z,86.10
2023-03-29T18:56:46.209Z,86.00
2023-03-29T18:59:13.678Z,86.50
2023-03-29T19:01:40.614Z,86.70
2023-03-29T19:04:07.351Z,86.80
2023-03-29T19:06:34.174Z,86.80
2023-03-29T19:09:02.317Z,87.30
2023-03-29T19:11:29.701Z,87.40
2023-03-29T19:13:56.660Z,86.90
2023-03-29T19:16:23.832Z,87.20
2023-03-29T19:18:50.821Z,88.00
2023-03-29T19:21:17.617Z,88.60
2023-03-29T19:23:44.485Z,88.50
2023-03-29T19:26:11.571Z,87.70
2023-03-29T19:28:38.449Z,87.60
2023-03-29T19:31:05.468Z,87.40
2023-03-29T19:33:33.002Z,86.80
2023-03-29T19:35:59.837Z,87.00
2023-03-29T19:38:26.766Z,86.60
2023-03-29T19:40:53.615Z,86.20
2023-03-29T19:43:20.934Z,86.00
2023-03-29T19:45:49.629Z,86.20
2023-03-29T19:48:22.334Z,85.40
2023-03-29T19:50:50.657Z,85.40
2023-03-29T19:53:17.564Z,85.90
2023-03-29T19:55:45.331Z,86.50
2023-03-29T19:58:12.894Z,86.30
2023-03-29T20:00:41.714Z,86.00
2023-03-29T20:03:13.960Z,85.60
2023-03-29T20:05:41.097Z,85.80
2023-03-29T20:08:08.213Z,86.10
2023-03-29T20:10:36.192Z,86.30
2023-03-29T20:13:03.261Z,86.00
2023-03-29T20:15:30.062Z,86.40
2023-03-29T20:17:59.448Z,86.60
2023-03-29T20:20:27.439Z,86.90
2023-03-29T20:22:58.106Z,87.40
2023-03-29T20:25:25.933Z,87.50
2023-03-29T20:27:53.192Z,87.40
2023-03-29T20:30:20.332Z,86.80
2023-03-29T20:32:47.384Z,86.10
2023-03-29T20:35:14.342Z,85.80
2023-03-29T20:37:41.139Z,86.30
2023-03-29T20:40:08.925Z,86.30
2023-03-29T20:42:36.790Z,86.00
2023-03-29T20:45:04.527Z,86.20
2023-03-29T20:47:31.546Z,86.40
2023-03-29T20:49:58.851Z,86.20
2023-03-29T20:52:25.720Z,86.90
2023-03-29T20:54:52.687Z,86.90
2023-03-29T20:57:20.839Z,86.70
2023-03-29T20:59:49.273Z,86.70
2023-03-29T21:02:22.132Z,87.00
2023-03-29T21:04:51.731Z,87.00
2023-03-29T21:07:20.248Z,87.30
2023-03-29T21:09:49.966Z,86.80
2023-03-29T21:12:17.375Z,86.90
2023-03-29T21:14:44.652Z,87.10
2023-03-29T21:17:11.443Z,86.40
2023-03-29T21:19:42.208Z,87.80
2023-03-29T21:22:08.983Z,87.40
2023-03-29T21:24:38.408Z,86.70
2023-03-29T21:27:05.788Z,87.30
2023-03-29T21:29:32.533Z,86.70
2023-03-29T21:31:59.413Z,84.80
2023-03-29T21:34:26.126Z,84.40
2023-03-29T21:36:52.853Z,84.60
2023-03-29T21:39:19.574Z,84.10
2023-03-29T21:41:46.325Z,84.70
2023-03-29T21:44:13.175Z,84.40
2023-03-29T21:46:39.965Z,85.10
2023-03-29T21:49:06.774Z,85.10
2023-03-29T21:51:33.586Z,84.40
2023-03-29T21:54:00.277Z,83.80
2023-03-29T21:56:28.106Z,81.90
2023-03-29T21:58:55.294Z,81.90
2023-03-29T22:01:22.009Z,80.80
2023-03-29T22:03:48.755Z,79.90
2023-03-29T22:06:15.753Z,79.70
2023-03-29T22:08:42.496Z,78.90
2023-03-29T22:11:14.600Z,80.40
2023-03-29T22:13:44.196Z,81.10
2023-03-29T22:16:18.472Z,80.80
2023-03-29T22:18:49.198Z,80.00
2023-03-29T22:21:17.574Z,79.20
2023-03-29T22:23:47.162Z,78.60
2023-03-29T22:26:15.738Z,78.50
2023-03-29T22:28:42.751Z,78.40
2023-03-29T22:31:15.630Z,78.40
2023-03-29T22:33:42.712Z,78.50
2023-03-29T22:36:18.638Z,78.10
2023-03-29T22:38:46.471Z,77.50
2023-03-29T22:41:13.903Z,78.00
2023-03-29T22:43:41.227Z,77.90
2023-03-29T22:46:10.032Z,78.00
2023-03-29T22:48:37.169Z,78.60
2023-03-29T22:51:05.528Z,78.80
2023-03-29T22:53:33.271Z,78.50
2023-03-29T22:55:59.925Z,78.60
2023-03-29T22:58:26.719Z,78.60
2023-03-29T23:00:53.369Z,78.50
2023-03-29T23:03:20.026Z,78.80
2023-03-29T23:05:55.028Z,78.60
2023-03-29T23:08:23.009Z,78.80
2023-03-29T23:10:49.770Z,78.90
2023-03-29T23:13:23.561Z,79.00
2023-03-29T23:15:51.671Z,79.00
2023-03-29T23:18:21.012Z,78.90
2023-03-29T23:20:52.980Z,79.00
2023-03-29T23:23:20.390Z,79.40
2023-03-29T23:25:48.771Z,81.10
2023-03-29T23:28:21.364Z,80.80
2023-03-29T23:31:18.234Z,81.50
2023-03-29T23:33:49.400Z,81.10
2023-03-29T23:36:17.886Z,81.00
2023-03-29T23:38:46.013Z,81.30
2023-03-29T23:41:13.458Z,81.20
2023-03-29T23:43:42.403Z,81.40
2023-03-29T23:46:12.222Z,81.30
2023-03-29T23:48:39.293Z,81.10
2023-03-29T23:51:08.069Z,81.40
2023-03-29T23:53:34.724Z,81.50
2023-03-29T23:56:03.853Z,82.00
2023-03-29T23:58:33.235Z,82.10
